Time;durP1;ratioP1;P1;durP2;ratioP2;P2;SDS_P1;SDS_P2;PMS_P1;PMS_P2;Temp;Humidity;BMP_temperature;BMP_pressure;BME280_temperature;BME280_humidity;BME280_pressure;Samples;Min_cycle;Max_cycle;Signal;HPM_P1;HPM_P2
2023/10/23 00:02:06;;;;;;;4.18;2.10;;;;;;;14.08;68.69;101189.69;5077839;28;20048;-64
2023/10/23 00:04:34;;;;;;;6.82;2.03;;;;;;;14.06;68.96;101198.03;5078587;28;20044;-64
2023/10/23 00:07:02;;;;;;;6.80;2.17;;;;;;;14.04;68.38;101200.16;5073074;28;20041;-64
2023/10/23 00:09:30;;;;;;;3.92;1.70;;;;;;;14.04;68.64;101199.34;5077880;28;20122;-64
2023/10/23 00:11:58;;;;;;;3.72;2.00;;;;;;;14.03;68.73;101203.94;5066991;28;20045;-64
2023/10/23 00:14:25;;;;;;;2.92;1.80;;;;;;;14.01;68.66;101201.47;5072724;28;20045;-65
2023/10/23 00:16:53;;;;;;;3.67;1.80;;;;;;;14.03;68.44;101209.31;5072195;28;20064;-64
2023/10/23 00:19:22;;;;;;;3.88;1.77;;;;;;;13.95;68.44;101197.00;5075723;28;20052;-64
2023/10/23 00:21:51;;;;;;;3.45;1.67;;;;;;;14.00;68.49;101207.09;5072762;28;20098;-65
2023/10/23 00:24:18;;;;;;;4.07;1.67;;;;;;;13.99;68.39;101208.97;5072334;28;20048;-64
2023/10/23 00:26:46;;;;;;;4.65;2.03;;;;;;;13.97;68.72;101196.75;5075233;28;20062;-64
2023/10/23 00:29:14;;;;;;;3.55;1.75;;;;;;;13.96;68.59;101192.41;5079762;28;20067;-64
2023/10/23 00:31:42;;;;;;;5.47;1.88;;;;;;;13.97;68.65;101207.56;5074840;28;20079;-65
2023/10/23 00:34:10;;;;;;;4.57;1.90;;;;;;;13.95;68.36;101202.41;5077113;28;20098;-64
2023/10/23 00:36:39;;;;;;;5.03;2.03;;;;;;;13.91;68.36;101200.41;5073632;28;20123;-65
2023/10/23 00:39:07;;;;;;;5.10;2.28;;;;;;;13.95;68.27;101206.97;5077391;28;20064;-64
2023/10/23 00:41:35;;;;;;;4.25;2.53;;;;;;;13.95;68.46;101206.97;5072427;28;20056;-64
2023/10/23 00:44:02;;;;;;;4.22;1.90;;;;;;;13.94;68.47;101206.16;5069803;28;20041;-64
2023/10/23 00:46:31;;;;;;;4.93;2.30;;;;;;;13.89;68.55;101200.63;5076469;28;20071;-65
2023/10/23 00:48:59;;;;;;;4.50;1.80;;;;;;;13.92;68.11;101212.84;5077792;28;20060;-64
2023/10/23 00:51:28;;;;;;;3.92;2.00;;;;;;;13.91;68.10;101212.03;5076418;28;20048;-64
2023/10/23 00:53:57;;;;;;;4.32;2.15;;;;;;;13.92;68.28;101210.16;5070486;28;20496;-64
2023/10/23 00:56:26;;;;;;;3.70;1.92;;;;;;;13.92;67.93;101210.16;5071671;28;20102;-65
2023/10/23 00:58:53;;;;;;;7.18;2.10;;;;;;;13.91;68.23;101212.03;5074824;28;20048;-64
2023/10/23 01:01:21;;;;;;;5.68;2.35;;;;;;;13.89;68.29;101211.44;5071503;28;20044;-64
2023/10/23 01:03:49;;;;;;;4.55;2.15;;;;;;;13.88;67.92;101223.31;5077548;28;20059;-65
2023/10/23 01:06:17;;;;;;;5.05;1.90;;;;;;;13.87;68.17;101224.38;5070265;28;20136;-64
2023/10/23 01:08:45;;;;;;;3.45;1.67;;;;;;;13.87;68.20;101226.25;5076112;28;20260;-65
2023/10/23 01:11:14;;;;;;;5.78;2.13;;;;;;;13.86;67.88;101236.25;5072738;28;20098;-65
2023/10/23 01:13:42;;;;;;;4.57;2.10;;;;;;;13.85;67.86;101233.78;5070657;28;20055;-64
2023/10/23 01:16:10;;;;;;;3.67;1.92;;;;;;;13.85;68.14;101233.78;5073614;28;20070;-64
2023/10/23 01:18:38;;;;;;;6.18;2.75;;;;;;;13.84;67.89;101232.97;5067525;28;20090;-64
2023/10/23 01:21:05;;;;;;;10.27;2.05;;;;;;;13.82;67.88;101235.09;5071050;28;20052;-64
2023/10/23 01:23:36;;;;;;;6.35;2.58;;;;;;;13.82;67.90;101232.38;5071522;28;20045;-64
2023/10/23 01:26:05;;;;;;;3.05;1.70;;;;;;;13.81;68.12;101232.63;5077029;28;20041;-64
2023/10/23 01:28:33;;;;;;;4.35;1.90;;;;;;;13.79;67.84;101222.03;5079352;28;20053;-64
2023/10/23 01:31:01;;;;;;;6.43;2.20;;;;;;;13.78;67.66;101222.28;5080183;28;20059;-62
2023/10/23 01:33:29;;;;;;;3.65;1.70;;;;;;;13.77;67.68;101226.03;5078875;28;20044;-64
2023/10/23 01:35:57;;;;;;;3.40;2.25;;;;;;;13.76;68.03;101216.28;5073984;28;20187;-63
2023/10/23 01:38:25;;;;;;;3.60;1.60;;;;;;;13.76;67.90;101214.41;5072958;28;20044;-62
2023/10/23 01:40:53;;;;;;;3.95;1.60;;;;;;;13.72;67.94;101221.34;5075252;28;20135;-63
2023/10/23 01:43:22;;;;;;;8.20;2.28;;;;;;;13.73;67.94;101214.88;5078768;28;20048;-64
2023/10/23 01:45:50;;;;;;;4.30;2.40;;;;;;;13.72;67.55;101229.44;5075963;28;20088;-63
2023/10/23 01:48:18;;;;;;;4.57;2.20;;;;;;;13.72;67.68;101228.63;5076457;28;20064;-63
2023/10/23 01:50:46;;;;;;;4.85;2.47;;;;;;;13.71;67.50;101225.09;5074219;28;20045;-64
2023/10/23 01:53:14;;;;;;;5.20;2.00;;;;;;;13.68;67.54;101223.69;5069744;28;20481;-64
2023/10/23 01:55:42;;;;;;;4.25;1.50;;;;;;;13.69;67.93;101221.78;5073020;28;20048;-63
2023/10/23 01:58:10;;;;;;;5.38;2.03;;;;;;;13.65;67.57;101221.44;5073139;28;20075;-64
2023/10/23 02:00:39;;;;;;;5.15;2.00;;;;;;;13.66;67.78;101208.75;5076845;28;20040;-64
2023/10/23 02:03:07;;;;;;;4.50;1.70;;;;;;;13.63;67.53;101220.84;5074837;28;20052;-63
2023/10/23 02:05:35;;;;;;;3.17;1.60;;;;;;;13.64;67.20;101221.66;5075725;28;20095;-64
2023/10/23 02:08:03;;;;;;;6.95;2.20;;;;;;;13.63;67.77;101215.44;5076342;28;20052;-64
2023/10/23 02:10:31;;;;;;;2.72;1.70;;;;;;;13.62;67.30;101219.19;5075261;28;20044;-64
2023/10/23 02:12:59;;;;;;;6.13;2.10;;;;;;;13.49;67.48;101199.69;5071741;28;20060;-64
2023/10/23 02:15:27;;;;;;;2.70;1.90;;;;;;;13.62;67.24;101226.47;5073957;28;20048;-64
2023/10/23 02:17:56;;;;;;;3.30;1.77;;;;;;;13.60;67.11;101237.53;5073532;28;20045;-64
2023/10/23 02:20:27;;;;;;;7.43;3.03;;;;;;;13.59;67.39;101237.75;5078477;28;20155;-64
2023/10/23 02:22:55;;;;;;;3.25;1.75;;;;;;;13.57;67.44;101234.47;5072668;28;20053;-64
2023/10/23 02:25:22;;;;;;;6.47;1.70;;;;;;;13.56;67.08;101236.34;5076741;28;20052;-64
2023/10/23 02:27:50;;;;;;;1.98;1.55;;;;;;;13.51;66.83;101229.97;5077330;28;20052;-64
2023/10/23 02:30:18;;;;;;;7.53;2.35;;;;;;;13.54;66.83;101245.72;5079548;28;20048;-64
2023/10/23 02:32:46;;;;;;;3.72;1.73;;;;;;;13.53;66.88;101254.88;5079400;28;20120;-63
2023/10/23 02:35:15;;;;;;;3.70;1.67;;;;;;;13.51;66.74;101244.31;5078468;28;20064;-64
2023/10/23 02:37:43;;;;;;;3.28;2.08;;;;;;;13.50;66.80;101247.25;5074729;28;20041;-64
2023/10/23 02:40:12;;;;;;;4.30;2.22;;;;;;;13.50;66.75;101241.84;5077019;28;20040;-64
2023/10/23 02:42:40;;;;;;;7.53;2.05;;;;;;;13.48;66.75;101241.25;5078205;28;20056;-64
2023/10/23 02:45:09;;;;;;;4.25;1.90;;;;;;;13.48;66.74;101239.38;5076939;28;20095;-64
2023/10/23 02:47:37;;;;;;;2.58;1.40;;;;;;;13.46;66.90;101244.19;5071298;28;20040;-64
2023/10/23 02:50:06;;;;;;;5.20;1.75;;;;;;;13.46;66.57;101240.66;5074185;28;20124;-64
2023/10/23 02:52:35;;;;;;;6.50;2.22;;;;;;;13.45;66.46;101244.41;5080826;28;20592;-64
2023/10/23 02:55:03;;;;;;;4.45;1.92;;;;;;;13.46;66.56;101243.34;5072058;28;20186;-63
2023/10/23 02:57:31;;;;;;;3.45;1.58;;;;;;;13.43;66.66;101236.53;5069763;28;20041;-63
2023/10/23 02:59:59;;;;;;;2.78;1.58;;;;;;;13.43;66.58;101251.91;5078920;28;20071;-63
2023/10/23 03:02:28;;;;;;;4.70;2.10;;;;;;;13.43;66.39;101243.81;5076174;28;20048;-63
2023/10/23 03:04:57;;;;;;;3.72;2.15;;;;;;;13.42;66.22;101244.88;5073378;28;20086;-63
2023/10/23 03:07:24;;;;;;;6.55;1.73;;;;;;;13.41;66.43;101241.34;5075500;28;20070;-63
2023/10/23 03:09:53;;;;;;;3.65;1.55;;;;;;;13.35;66.66;101236.88;5073841;28;20076;-63
2023/10/23 03:12:21;;;;;;;3.53;1.73;;;;;;;13.39;66.25;101240.75;5076593;28;20048;-64
2023/10/23 03:14:49;;;;;;;5.00;1.83;;;;;;;13.37;66.31;101248.25;5075273;28;20056;-64
2023/10/23 03:17:17;;;;;;;2.28;1.52;;;;;;;13.38;65.95;101246.38;5076147;28;20472;-64
2023/10/23 03:19:45;;;;;;;4.88;2.58;;;;;;;13.37;65.78;101247.44;5080190;28;21050;-64
2023/10/23 03:22:13;;;;;;;4.97;2.10;;;;;;;13.35;65.85;101247.66;5076000;28;20052;-64
2023/10/23 03:24:42;;;;;;;4.82;2.25;;;;;;;13.33;65.78;101242.50;5077804;28;20056;-64
2023/10/23 03:27:11;;;;;;;2.72;1.80;;;;;;;13.31;65.97;101241.91;5076151;28;20044;-64
2023/10/23 03:29:39;;;;;;;6.20;1.90;;;;;;;13.31;65.73;101244.59;5069181;28;20045;-64
2023/10/23 03:32:07;;;;;;;3.40;1.88;;;;;;;13.30;65.64;101244.84;5076909;28;20115;-64
2023/10/23 03:34:34;;;;;;;6.45;2.38;;;;;;;13.28;66.04;101247.75;5077806;28;20055;-64
2023/10/23 03:37:03;;;;;;;5.28;2.00;;;;;;;13.27;65.98;101246.13;5077022;28;20501;-64
2023/10/23 03:39:30;;;;;;;3.30;1.65;;;;;;;13.26;65.61;101254.44;5072423;28;20129;-64
2023/10/23 03:41:58;;;;;;;7.20;1.48;;;;;;;13.24;65.51;101254.69;5076156;28;20519;-64
2023/10/23 03:44:27;;;;;;;4.07;1.65;;;;;;;13.24;65.37;101254.69;5076471;28;20040;-64
2023/10/23 03:46:55;;;;;;;5.63;2.00;;;;;;;13.20;65.85;101249.97;5071451;28;20040;-64
2023/10/23 03:49:24;;;;;;;5.47;1.92;;;;;;;13.21;65.69;101255.13;5075156;28;20036;-64
2023/10/23 03:51:51;;;;;;;2.38;1.67;;;;;;;13.19;65.60;101257.25;5077971;28;20074;-64
2023/10/23 03:54:19;;;;;;;6.03;2.03;;;;;;;13.17;65.99;101247.72;5078175;28;20059;-64
2023/10/23 03:56:47;;;;;;;4.57;2.20;;;;;;;13.17;65.75;101251.25;5072431;28;20051;-64
2023/10/23 03:59:15;;;;;;;3.13;1.70;;;;;;;13.16;65.32;101248.75;5078090;28;20044;-64
2023/10/23 04:01:44;;;;;;;2.88;1.77;;;;;;;13.15;65.37;101245.22;5073864;28;20071;-64
2023/10/23 04:04:12;;;;;;;4.07;1.58;;;;;;;13.15;65.24;101256.03;5077303;28;20072;-64
2023/10/23 04:06:40;;;;;;;3.85;1.45;;;;;;;13.13;65.37;101254.59;5074588;28;20079;-64
2023/10/23 04:09:08;;;;;;;5.32;1.70;;;;;;;13.14;65.11;101261.66;5075811;28;20127;-64
2023/10/23 04:11:36;;;;;;;3.40;1.65;;;;;;;13.13;65.27;101262.69;5074566;28;20052;-64
2023/10/23 04:14:04;;;;;;;3.47;1.58;;;;;;;13.11;65.38;101259.41;5068183;28;20059;-64
2023/10/23 04:16:32;;;;;;;2.47;1.42;;;;;;;13.09;65.53;101253.41;5072531;28;20048;-65
2023/10/23 04:19:01;;;;;;;5.97;1.70;;;;;;;13.08;65.17;101257.97;5076283;28;20060;-63
2023/10/23 04:21:29;;;;;;;4.65;1.75;;;;;;;13.03;65.09;101247.06;5074928;28;20071;-63
2023/10/23 04:23:57;;;;;;;4.28;1.60;;;;;;;13.06;65.13;101257.38;5075501;28;20048;-63
2023/10/23 04:26:25;;;;;;;2.75;1.60;;;;;;;13.03;64.95;101258.66;5074996;28;20052;-63
2023/10/23 04:28:52;;;;;;;6.38;2.00;;;;;;;13.03;65.39;101257.84;5075556;28;20061;-63
2023/10/23 04:31:20;;;;;;;4.68;1.90;;;;;;;13.02;64.99;101256.19;5075679;28;20152;-64
2023/10/23 04:33:48;;;;;;;3.75;1.52;;;;;;;13.01;65.42;101260.78;5076595;28;20048;-63
2023/10/23 04:36:17;;;;;;;4.40;1.73;;;;;;;13.01;65.01;101270.75;5069960;28;20083;-63
2023/10/23 04:38:45;;;;;;;4.45;1.73;;;;;;;13.00;64.94;101269.09;5078357;28;20074;-63
2023/10/23 04:41:13;;;;;;;5.60;2.38;;;;;;;12.99;64.92;101262.88;5077876;28;20057;-63
2023/10/23 04:43:41;;;;;;;3.80;1.70;;;;;;;12.98;64.99;101263.09;5075393;28;20397;-63
2023/10/23 04:46:09;;;;;;;4.20;2.00;;;;;;;12.96;65.28;101266.03;5075165;28;20060;-63
2023/10/23 04:48:37;;;;;;;4.55;1.70;;;;;;;12.95;64.79;101267.06;5071881;28;20104;-64
2023/10/23 04:51:05;;;;;;;5.22;2.22;;;;;;;12.95;65.06;101258.97;5073346;28;20351;-63
2023/10/23 04:53:34;;;;;;;4.95;1.90;;;;;;;12.93;64.81;101262.97;5073261;28;20110;-64
2023/10/23 04:56:05;;;;;;;6.00;1.92;;;;;;;12.91;64.52;101259.66;5076553;28;20048;-64
2023/10/23 04:58:33;;;;;;;5.97;1.52;;;;;;;12.93;64.87;101260.25;5075194;28;20067;-64
2023/10/23 05:01:00;;;;;;;4.53;1.88;;;;;;;12.90;64.66;101247.22;5079033;28;20072;-63
2023/10/23 05:03:29;;;;;;;6.20;2.00;;;;;;;12.89;64.65;101251.78;5076785;28;20125;-64
2023/10/23 05:05:57;;;;;;;3.40;1.90;;;;;;;12.88;64.95;101254.72;5078389;28;20052;-64
2023/10/23 05:08:25;;;;;;;7.70;2.00;;;;;;;12.88;64.96;101260.13;5082129;28;20037;-63
2023/10/23 05:11:05;;;;;;;4.50;1.98;;;;;;;12.86;64.53;101263.03;5075936;28;20106;-65
2023/10/23 05:13:33;;;;;;;5.88;1.75;;;;;;;12.85;64.88;101249.78;5081552;28;20488;-64
2023/10/23 05:16:05;;;;;;;3.90;1.80;;;;;;;12.85;64.55;101256.00;5075976;28;20094;-62
2023/10/23 05:18:33;;;;;;;4.93;2.00;;;;;;;12.85;64.55;101258.69;5079373;28;20047;-64
2023/10/23 05:21:06;;;;;;;4.07;2.20;;;;;;;12.84;64.36;101257.06;5073549;28;20044;-63
2023/10/23 05:23:34;;;;;;;5.28;2.28;;;;;;;12.83;64.75;101250.00;5080662;28;20068;-64
2023/10/23 05:26:03;;;;;;;3.47;1.80;;;;;;;12.82;64.20;101250.22;5078875;28;20086;-66
2023/10/23 05:28:31;;;;;;;7.70;2.50;;;;;;;12.81;64.57;101248.59;5079420;28;20045;-66
2023/10/23 05:30:59;;;;;;;6.43;2.33;;;;;;;12.79;64.38;101251.50;5076834;28;20049;-61
2023/10/23 05:33:27;;;;;;;4.35;2.35;;;;;;;12.78;64.37;101254.44;5077050;28;20086;-67
2023/10/23 05:36:01;;;;;;;4.43;2.53;;;;;;;12.76;64.22;101251.97;5082650;28;20127;-67
2023/10/23 05:38:29;;;;;;;4.45;2.03;;;;;;;12.78;64.16;101249.88;5075594;28;20064;-66
2023/10/23 05:40:57;;;;;;;4.93;2.03;;;;;;;12.73;64.64;101248.91;5080435;28;20048;-67
2023/10/23 05:43:27;;;;;;;3.75;1.83;;;;;;;12.76;64.06;101256.53;5072156;28;20045;-67
2023/10/23 05:45:55;;;;;;;5.30;1.83;;;;;;;12.75;64.49;101252.19;5074782;28;20060;-68
2023/10/23 05:48:23;;;;;;;4.60;2.20;;;;;;;12.74;64.00;101250.53;5081611;28;20044;-67
2023/10/23 05:50:59;;;;;;;8.20;2.28;;;;;;;12.73;64.33;101251.59;4723193;28;9999914;-64
2023/10/23 05:53:28;;;;;;;2.95;1.80;;;;;;;12.71;64.19;101249.94;5074015;28;20108;-67
2023/10/23 05:56:00;;;;;;;4.88;2.00;;;;;;;12.58;64.36;101235.78;5071794;28;20049;-72
2023/10/23 05:58:29;;;;;;;7.75;2.15;;;;;;;12.67;63.24;101258.72;5080734;28;20052;-68
2023/10/23 06:00:57;;;;;;;5.60;2.00;;;;;;;12.57;63.71;101250.31;5076670;28;20048;-68
2023/10/23 06:03:25;;;;;;;4.20;1.90;;;;;;;12.59;63.86;101259.84;5073969;28;20142;-69
2023/10/23 06:05:53;;;;;;;3.45;2.13;;;;;;;12.60;64.29;101256.09;5083155;28;20045;-69
2023/10/23 06:08:21;;;;;;;8.55;2.30;;;;;;;12.58;63.82;101252.78;5077082;28;20052;-69
2023/10/23 06:10:49;;;;;;;4.40;1.85;;;;;;;12.60;63.85;101252.56;5074657;28;20064;-68
2023/10/23 06:13:16;;;;;;;6.35;2.17;;;;;;;12.60;64.25;101256.09;5075538;28;20281;-67
2023/10/23 06:15:46;;;;;;;6.85;2.20;;;;;;;12.51;64.22;101254.75;5073537;28;20048;-67
2023/10/23 06:18:14;;;;;;;4.10;2.33;;;;;;;12.41;63.85;101250.91;5076205;28;20364;-66
2023/10/23 06:20:41;;;;;;;8.10;1.95;;;;;;;12.38;63.63;101250.31;5068274;28;20067;-67
2023/10/23 06:23:09;;;;;;;5.80;1.95;;;;;;;12.37;63.99;101251.38;5078318;28;20048;-67
2023/10/23 06:25:37;;;;;;;9.05;3.08;;;;;;;12.40;64.12;101255.50;5083404;28;20052;-67
2023/10/23 06:28:05;;;;;;;7.00;2.63;;;;;;;12.42;63.82;101255.25;5090973;28;20040;-66
2023/10/23 06:30:35;;;;;;;6.38;2.85;;;;;;;12.44;63.97;101245.91;5083049;28;20065;-66
2023/10/23 06:33:04;;;;;;;7.95;2.35;;;;;;;12.44;64.15;101248.59;5082317;28;20057;-66
2023/10/23 06:35:32;;;;;;;6.18;3.13;;;;;;;12.45;63.87;101262.91;5076096;28;20474;-66
2023/10/23 06:38:00;;;;;;;8.77;2.22;;;;;;;12.44;63.85;101261.25;5079277;28;20045;-66
2023/10/23 06:40:28;;;;;;;4.13;1.67;;;;;;;12.44;64.32;101266.66;5069792;28;20049;-66
2023/10/23 06:42:56;;;;;;;4.90;2.28;;;;;;;12.44;64.44;101263.94;5072114;28;20044;-65
2023/10/23 06:45:23;;;;;;;6.35;2.00;;;;;;;12.45;64.28;101261.03;5081143;28;20098;-65
2023/10/23 06:48:15;;;;;;;3.50;2.03;;;;;;;12.43;64.33;101248.81;5070617;28;20100;-65
2023/10/23 06:50:47;;;;;;;5.25;2.00;;;;;;;12.39;64.38;101246.56;5081431;28;20165;-65
2023/10/23 06:53:15;;;;;;;6.95;2.20;;;;;;;12.43;64.17;101251.53;5076355;28;20076;-65
2023/10/23 06:55:49;;;;;;;7.75;2.17;;;;;;;12.41;64.13;101254.44;5070897;28;20452;-65
2023/10/23 06:58:18;;;;;;;3.92;1.83;;;;;;;12.41;64.05;101253.63;5072475;28;20053;-65
2023/10/23 07:00:46;;;;;;;3.92;2.10;;;;;;;12.41;64.63;101253.63;5072277;28;20040;-65
2023/10/23 07:03:16;;;;;;;5.40;2.63;;;;;;;12.35;64.29;101252.63;5070076;28;20150;-65
2023/10/23 07:05:44;;;;;;;2.03;1.70;;;;;;;12.40;64.17;101255.50;5075879;28;20079;-66
2023/10/23 07:08:13;;;;;;;4.95;1.83;;;;;;;12.40;64.44;101250.09;5072890;28;20055;-65
2023/10/23 07:10:41;;;;;;;5.57;1.92;;;;;;;12.38;64.32;101253.00;5077953;28;20047;-65
2023/10/23 07:13:08;;;;;;;6.15;1.90;;;;;;;12.36;64.81;101251.59;5073620;28;20044;-65
2023/10/23 07:15:49;;;;;;;5.20;1.92;;;;;;;12.36;64.44;101255.13;5074302;28;20200;-66
2023/10/23 07:18:18;;;;;;;8.07;2.28;;;;;;;12.34;64.78;101254.50;5086321;28;20044;-65
2023/10/23 07:20:56;;;;;;;5.50;1.90;;;;;;;12.35;64.82;101252.63;5088909;28;20044;-66
2023/10/23 07:23:25;;;;;;;4.15;2.03;;;;;;;12.33;65.03;101265.50;5081423;28;20102;-67
2023/10/23 07:26:01;;;;;;;5.43;2.10;;;;;;;12.33;64.65;101269.03;5079176;28;20056;-66
2023/10/23 07:28:29;;;;;;;4.95;2.25;;;;;;;12.33;64.85;101269.03;5082482;28;20053;-66
2023/10/23 07:30:57;;;;;;;8.32;2.28;;;;;;;12.34;64.69;101273.38;5082383;28;20045;-66
2023/10/23 07:33:26;;;;;;;6.57;1.98;;;;;;;12.34;65.13;101267.16;5073939;28;20144;-66
2023/10/23 07:36:05;;;;;;;3.30;1.90;;;;;;;12.34;65.14;101269.84;5079158;28;20052;-66
2023/10/23 07:38:33;;;;;;;4.20;1.90;;;;;;;12.33;64.99;101274.41;5082492;28;20044;-66
2023/10/23 07:41:01;;;;;;;3.50;2.20;;;;;;;12.33;65.33;101270.91;5076464;28;20044;-66
2023/10/23 07:43:29;;;;;;;3.30;2.00;;;;;;;12.32;65.09;101269.25;5072251;28;20064;-66
2023/10/23 07:45:58;;;;;;;4.88;1.85;;;;;;;12.32;65.28;101270.09;5075285;28;20154;-66
2023/10/23 07:48:30;;;;;;;3.92;1.58;;;;;;;12.33;65.24;101269.03;5079738;28;20049;-66
2023/10/23 07:50:58;;;;;;;5.18;1.80;;;;;;;12.34;65.01;101269.84;5071651;28;20059;-66
2023/10/23 07:53:27;;;;;;;6.57;1.70;;;;;;;12.30;65.48;101266.78;5070835;28;20155;-66
2023/10/23 07:55:55;;;;;;;3.90;2.13;;;;;;;12.33;65.60;101262.81;5076678;28;20048;-66
2023/10/23 07:58:23;;;;;;;6.47;1.85;;;;;;;12.33;65.26;101265.50;5080580;28;20048;-66
2023/10/23 08:00:51;;;;;;;2.85;1.67;;;;;;;12.35;65.28;101258.03;5073619;28;20045;-66
2023/10/23 08:03:19;;;;;;;4.07;2.00;;;;;;;12.35;65.28;101256.16;5075804;28;20053;-66
2023/10/23 08:05:48;;;;;;;4.65;2.00;;;;;;;12.35;65.33;101255.34;5077105;28;20040;-67
2023/10/23 08:08:16;;;;;;;2.85;1.88;;;;;;;12.36;65.39;101247.03;5071267;28;20048;-66
2023/10/23 08:10:44;;;;;;;4.40;2.00;;;;;;;12.36;65.56;101251.59;5073564;28;20040;-66
2023/10/23 08:13:12;;;;;;;6.03;2.03;;;;;;;12.37;65.48;101243.28;5074180;28;20075;-66
2023/10/23 08:15:40;;;;;;;4.93;2.13;;;;;;;12.38;65.84;101252.19;5075731;28;20044;-66
2023/10/23 08:18:08;;;;;;;4.53;1.77;;;;;;;12.37;65.50;101245.16;5078568;28;20056;-66
2023/10/23 08:20:54;;;;;;;2.40;1.70;;;;;;;12.39;65.92;101251.16;5075689;28;20586;-67
2023/10/23 08:23:22;;;;;;;5.38;1.80;;;;;;;12.39;65.86;101246.56;5078154;28;20048;-66
2023/10/23 08:25:49;;;;;;;6.28;2.00;;;;;;;12.39;65.99;101257.34;5073057;28;20110;-67
2023/10/23 08:28:17;;;;;;;7.28;2.25;;;;;;;12.40;65.65;101252.78;5068626;28;20037;-67
2023/10/23 08:30:45;;;;;;;4.35;2.08;;;;;;;12.41;65.86;101251.75;5072503;28;20066;-66
2023/10/23 08:33:13;;;;;;;3.70;2.15;;;;;;;12.42;65.94;101258.78;5075154;28;20041;-66
2023/10/23 08:35:41;;;;;;;6.90;2.00;;;;;;;12.44;65.72;101255.88;5082313;28;20049;-67
2023/10/23 08:38:11;;;;;;;5.25;1.70;;;;;;;12.44;65.79;101258.56;5079741;28;20062;-66
2023/10/23 08:40:38;;;;;;;7.70;1.98;;;;;;;12.44;65.89;101253.16;4730965;28;10000529;-68
2023/10/23 08:43:06;;;;;;;6.30;2.53;;;;;;;12.44;66.36;101254.00;5079135;28;20505;-67
2023/10/23 08:45:34;;;;;;;5.90;3.28;;;;;;;12.43;66.24;101249.66;5077484;28;20052;-68
2023/10/23 08:48:02;;;;;;;5.20;2.50;;;;;;;12.43;66.43;101251.53;5070464;28;20122;-67
2023/10/23 08:50:31;;;;;;;5.65;2.17;;;;;;;12.43;66.61;101248.81;5079414;28;20254;-68
2023/10/23 08:53:04;;;;;;;3.17;1.73;;;;;;;12.46;66.43;101248.38;5083409;28;20052;-67
2023/10/23 08:55:33;;;;;;;7.03;1.98;;;;;;;12.46;66.57;101253.78;5077531;28;20111;-67
2023/10/23 08:58:05;;;;;;;4.32;2.33;;;;;;;12.47;66.45;101248.16;5076427;28;20059;-67
2023/10/23 09:00:33;;;;;;;3.65;2.17;;;;;;;12.48;66.89;101244.41;5084108;28;20046;-66
2023/10/23 09:03:03;;;;;;;6.20;1.80;;;;;;;12.48;67.00;101247.09;5081906;28;20112;-67
2023/10/23 09:05:31;;;;;;;3.97;2.10;;;;;;;12.48;66.92;101244.41;5082977;28;20304;-67
2023/10/23 09:08:00;;;;;;;7.45;2.22;;;;;;;12.51;67.00;101243.13;5073299;28;20111;-67
2023/10/23 09:10:27;;;;;;;4.63;2.33;;;;;;;12.49;67.08;101231.75;5082249;28;20051;-67
2023/10/23 09:12:57;;;;;;;5.53;2.13;;;;;;;12.50;66.87;101236.09;5077194;28;20053;-66
2023/10/23 09:15:25;;;;;;;6.28;2.40;;;;;;;12.54;66.87;101237.28;5071957;28;20836;-67
2023/10/23 09:17:54;;;;;;;4.90;2.22;;;;;;;12.54;67.30;101232.72;5080160;28;20040;-67
2023/10/23 09:20:23;;;;;;;7.63;2.33;;;;;;;12.53;67.10;101232.94;5084675;28;20089;-66
2023/10/23 09:22:56;;;;;;;6.30;2.08;;;;;;;12.52;67.46;101215.94;5067132;28;20049;-66
2023/10/23 09:25:25;;;;;;;6.40;2.42;;;;;;;12.55;67.35;101214.69;5078234;28;20056;-67
2023/10/23 09:27:53;;;;;;;5.60;2.17;;;;;;;12.56;67.65;101208.22;5075875;28;20049;-67
2023/10/23 09:30:22;;;;;;;6.78;2.70;;;;;;;12.57;67.21;101205.31;5085981;28;20059;-66
2023/10/23 09:32:53;;;;;;;3.80;1.77;;;;;;;12.58;67.21;101204.25;5073086;28;20072;-66
2023/10/23 09:35:24;;;;;;;7.78;3.80;;;;;;;12.61;67.72;101217.28;5074977;28;20119;-67
2023/10/23 09:37:52;;;;;;;3.53;1.63;;;;;;;12.57;67.78;101209.88;5075891;28;20044;-66
2023/10/23 09:40:20;;;;;;;5.40;2.13;;;;;;;12.62;67.37;101208.16;5072141;28;20458;-66
2023/10/23 09:42:49;;;;;;;6.57;2.33;;;;;;;12.64;67.61;101211.44;5074025;28;20111;-66
2023/10/23 09:45:17;;;;;;;10.02;2.90;;;;;;;12.63;67.95;101203.59;5074377;28;20041;-63
2023/10/23 09:47:46;;;;;;;3.65;1.95;;;;;;;12.50;68.18;101193.78;5077716;28;20040;-60
2023/10/23 09:50:14;;;;;;;6.15;1.70;;;;;;;12.65;67.90;101217.66;5081668;28;20052;-65
2023/10/23 09:52:44;;;;;;;8.77;2.05;;;;;;;12.67;68.09;101216.38;5077736;28;20290;-65
2023/10/23 09:55:14;;;;;;;7.07;2.50;;;;;;;12.67;67.98;101211.00;5079825;28;20052;-65
2023/10/23 09:57:46;;;;;;;6.18;2.50;;;;;;;12.66;67.92;101206.66;5083135;28;20040;-65
2023/10/23 10:00:15;;;;;;;5.20;2.20;;;;;;;12.67;68.03;101213.69;5082782;28;20052;-66
2023/10/23 10:02:48;;;;;;;11.43;2.35;;;;;;;12.68;68.12;101211.81;5084529;28;20049;-65
2023/10/23 10:05:21;;;;;;;5.15;2.33;;;;;;;12.68;67.97;101206.44;5082132;28;20055;-65
2023/10/23 10:07:59;;;;;;;4.78;2.08;;;;;;;12.70;68.34;101196.22;5080725;28;20063;-65
2023/10/23 10:10:28;;;;;;;5.18;1.90;;;;;;;12.73;67.94;101189.56;5083744;28;20087;-65
2023/10/23 10:12:57;;;;;;;7.40;2.38;;;;;;;12.73;68.41;101200.34;5083051;28;20048;-65
2023/10/23 10:15:26;;;;;;;4.68;1.98;;;;;;;12.74;68.11;101197.44;5081491;28;20394;-65
2023/10/23 10:17:55;;;;;;;6.63;2.08;;;;;;;12.76;68.53;101191.81;5082050;28;20118;-65
2023/10/23 10:20:24;;;;;;;6.32;2.38;;;;;;;12.76;68.72;101189.94;5071312;28;20075;-65
2023/10/23 10:22:59;;;;;;;3.75;1.75;;;;;;;12.77;68.51;101185.34;5076922;28;20447;-65
2023/10/23 10:25:29;;;;;;;8.38;3.13;;;;;;;12.78;68.56;101187.00;5077552;28;20055;-65
2023/10/23 10:27:57;;;;;;;15.77;2.75;;;;;;;12.79;68.89;101181.38;5083678;28;20071;-64
2023/10/23 10:30:40;;;;;;;5.88;1.90;;;;;;;12.80;68.83;101179.50;5082804;28;20056;-65
2023/10/23 10:33:11;;;;;;;3.78;1.90;;;;;;;12.82;68.96;101175.53;5075400;28;20044;-64
2023/10/23 10:36:01;;;;;;;8.00;2.55;;;;;;;12.83;68.91;101171.78;5081099;28;20131;-65
2023/10/23 10:38:31;;;;;;;7.07;2.00;;;;;;;12.85;68.67;101171.56;5081764;28;20048;-65
2023/10/23 10:41:00;;;;;;;6.05;1.92;;;;;;;12.83;69.05;101169.09;5081947;28;20150;-64
2023/10/23 10:43:31;;;;;;;7.75;1.92;;;;;;;12.88;68.92;101165.69;5081868;28;20060;-65
2023/10/23 10:46:01;;;;;;;5.85;2.15;;;;;;;12.87;69.13;101161.34;5072047;28;20115;-65
2023/10/23 10:48:43;;;;;;;6.15;2.10;;;;;;;12.86;69.17;101151.63;5074830;28;20368;-65
2023/10/23 10:51:15;;;;;;;6.43;2.08;;;;;;;12.90;68.84;101145.53;5074006;28;20388;-65
2023/10/23 10:53:43;;;;;;;7.50;2.28;;;;;;;12.90;69.22;101140.16;5074171;28;20080;-65
2023/10/23 10:56:11;;;;;;;7.68;1.92;;;;;;;12.92;69.16;101135.34;5080001;28;20049;-65
2023/10/23 10:58:39;;;;;;;5.57;2.10;;;;;;;12.94;69.25;101130.53;5082341;28;20133;-65
2023/10/23 11:01:08;;;;;;;6.38;2.33;;;;;;;12.88;69.34;101111.75;5081456;28;20444;-65
2023/10/23 11:03:37;;;;;;;6.47;2.50;;;;;;;12.93;69.57;101110.00;5083703;28;20048;-65
2023/10/23 11:06:07;;;;;;;7.82;2.67;;;;;;;12.95;69.01;101113.31;5075008;28;20071;-65
2023/10/23 11:08:35;;;;;;;6.25;2.22;;;;;;;12.98;68.89;101112.00;5070495;28;20070;-65
2023/10/23 11:11:04;;;;;;;8.82;1.90;;;;;;;12.97;69.13;101103.09;5077136;28;20048;-65
2023/10/23 11:13:32;;;;;;;5.93;1.70;;;;;;;12.98;69.66;101102.03;5076619;28;20068;-65
2023/10/23 11:16:01;;;;;;;10.85;2.45;;;;;;;13.01;69.41;101101.59;5076120;28;20044;-65
2023/10/23 11:18:29;;;;;;;5.68;1.90;;;;;;;13.02;69.59;101097.00;5079521;28;20041;-65
2023/10/23 11:20:58;;;;;;;7.47;1.92;;;;;;;13.05;69.33;101099.25;5074813;28;20049;-65
2023/10/23 11:23:29;;;;;;;8.25;2.40;;;;;;;13.06;69.12;101087.41;5077727;28;20037;-64
2023/10/23 11:25:57;;;;;;;9.35;2.10;;;;;;;13.04;69.45;101084.09;5081409;28;20045;-64
2023/10/23 11:28:25;;;;;;;7.78;2.22;;;;;;;13.07;69.16;101074.72;5081915;28;20073;-65
2023/10/23 11:30:55;;;;;;;8.27;2.55;;;;;;;13.08;69.43;101066.41;5070087;28;20057;-64
2023/10/23 11:33:23;;;;;;;8.80;2.10;;;;;;;13.10;69.09;101068.88;5076082;28;20079;-65